sensor_id;sensor_type;location;lat;lon;timestamp;P1;durP1;ratioP1;P2;durP2;ratioP2
24337;SDS011;12457;50.832;4.346;2023-04-01T00:01:21;14.38;;;3.67;;
24337;SDS011;12457;50.832;4.346;2023-04-01T00:03:48;15.40;;;3.72;;
24337;SDS011;12457;50.832;4.346;2023-04-01T00:06:15;15.82;;;3.60;;
24337;SDS011;12457;50.832;4.346;2023-04-01T00:08:42;10.32;;;3.22;;
24337;SDS011;12457;50.832;4.346;2023-04-01T00:11:10;15.48;;;3.80;;
24337;SDS011;12457;50.832;4.346;2023-04-01T00:16:36;14.00;;;3.58;;
24337;SDS011;12457;50.832;4.346;2023-04-01T00:19:02;16.00;;;3.65;;
24337;SDS011;12457;50.832;4.346;2023-04-01T00:21:28;16.85;;;3.45;;
24337;SDS011;12457;50.832;4.346;2023-04-01T00:23:54;13.90;;;3.22;;
24337;SDS011;12457;50.832;4.346;2023-04-01T00:26:20;13.52;;;3.40;;
24337;SDS011;12457;50.832;4.346;2023-04-01T00:28:59;12.13;;;3.22;;
24337;SDS011;12457;50.832;4.346;2023-04-01T00:31:25;10.85;;;3.25;;
24337;SDS011;12457;50.832;4.346;2023-04-01T00:33:51;12.05;;;2.78;;
24337;SDS011;12457;50.832;4.346;2023-04-01T00:36:18;10.77;;;3.33;;
24337;SDS011;12457;50.832;4.346;2023-04-01T00:38:46;11.88;;;2.92;;
24337;SDS011;12457;50.832;4.346;2023-04-01T00:41:17;12.50;;;2.88;;
24337;SDS011;12457;50.832;4.346;2023-04-01T00:43:46;12.35;;;3.05;;
24337;SDS011;12457;50.832;4.346;2023-04-01T00:46:13;14.13;;;2.90;;
24337;SDS011;12457;50.832;4.346;2023-04-01T00:48:41;7.72;;;2.60;;
24337;SDS011;12457;50.832;4.346;2023-04-01T00:51:23;14.98;;;2.75;;
24337;SDS011;12457;50.832;4.346;2023-04-01T00:53:55;8.07;;;2.75;;
24337;SDS011;12457;50.832;4.346;2023-04-01T00:56:24;5.88;;;2.30;;
24337;SDS011;12457;50.832;4.346;2023-04-01T00:58:59;10.15;;;2.50;;
24337;SDS011;12457;50.832;4.346;2023-04-01T01:01:27;11.60;;;2.55;;
24337;SDS011;12457;50.832;4.346;2023-04-01T01:03:55;10.13;;;2.65;;
24337;SDS011;12457;50.832;4.346;2023-04-01T01:06:26;8.98;;;3.03;;
24337;SDS011;12457;50.832;4.346;2023-04-01T01:09:19;5.45;;;2.30;;
24337;SDS011;12457;50.832;4.346;2023-04-01T01:25:42;6.22;;;2.08;;
24337;SDS011;12457;50.832;4.346;2023-04-01T01:31:10;6.07;;;1.77;;
24337;SDS011;12457;50.832;4.346;2023-04-01T01:36:18;5.68;;;2.58;;
24337;SDS011;12457;50.832;4.346;2023-04-01T01:38:47;8.88;;;2.13;;
24337;SDS011;12457;50.832;4.346;2023-04-01T01:41:16;7.38;;;2.38;;
24337;SDS011;12457;50.832;4.346;2023-04-01T01:43:44;6.88;;;2.53;;
24337;SDS011;12457;50.832;4.346;2023-04-01T01:46:13;6.93;;;2.47;;
24337;SDS011;12457;50.832;4.346;2023-04-01T01:48:42;4.72;;;2.33;;
24337;SDS011;12457;50.832;4.346;2023-04-01T01:51:09;8.80;;;3.00;;
24337;SDS011;12457;50.832;4.346;2023-04-01T01:53:35;9.18;;;3.83;;
24337;SDS011;12457;50.832;4.346;2023-04-01T01:56:02;9.13;;;3.70;;
24337;SDS011;12457;50.832;4.346;2023-04-01T01:58:29;10.52;;;4.30;;
24337;SDS011;12457;50.832;4.346;2023-04-01T02:01:06;13.10;;;4.78;;
24337;SDS011;12457;50.832;4.346;2023-04-01T02:03:38;11.70;;;5.00;;
24337;SDS011;12457;50.832;4.346;2023-04-01T02:06:07;12.05;;;5.40;;
24337;SDS011;12457;50.832;4.346;2023-04-01T02:08:36;14.20;;;5.57;;
24337;SDS011;12457;50.832;4.346;2023-04-01T02:11:04;12.70;;;6.40;;
24337;SDS011;12457;50.832;4.346;2023-04-01T02:13:38;14.18;;;6.80;;
24337;SDS011;12457;50.832;4.346;2023-04-01T02:16:19;11.50;;;6.15;;
24337;SDS011;12457;50.832;4.346;2023-04-01T02:18:48;19.65;;;6.25;;
24337;SDS011;12457;50.832;4.346;2023-04-01T02:21:16;11.32;;;6.00;;
24337;SDS011;12457;50.832;4.346;2023-04-01T02:23:45;14.77;;;5.53;;
24337;SDS011;12457;50.832;4.346;2023-04-01T02:26:12;16.98;;;6.05;;
24337;SDS011;12457;50.832;4.346;2023-04-01T02:28:39;14.48;;;5.75;;
24337;SDS011;12457;50.832;4.346;2023-04-01T02:31:11;17.00;;;5.47;;
24337;SDS011;12457;50.832;4.346;2023-04-01T02:33:39;21.80;;;6.03;;
24337;SDS011;12457;50.832;4.346;2023-04-01T02:36:07;13.77;;;5.70;;
24337;SDS011;12457;50.832;4.346;2023-04-01T02:38:37;17.50;;;5.75;;
24337;SDS011;12457;50.832;4.346;2023-04-01T02:41:03;11.77;;;5.55;;
24337;SDS011;12457;50.832;4.346;2023-04-01T02:46:53;12.68;;;5.55;;
24337;SDS011;12457;50.832;4.346;2023-04-01T02:49:19;14.95;;;5.00;;
24337;SDS011;12457;50.832;4.346;2023-04-01T02:51:44;12.93;;;5.25;;
24337;SDS011;12457;50.832;4.346;2023-04-01T02:54:10;24.10;;;5.20;;
24337;SDS011;12457;50.832;4.346;2023-04-01T02:56:36;18.10;;;5.22;;
24337;SDS011;12457;50.832;4.346;2023-04-01T02:59:01;16.80;;;5.53;;
24337;SDS011;12457;50.832;4.346;2023-04-01T03:01:28;17.65;;;5.85;;
24337;SDS011;12457;50.832;4.346;2023-04-01T03:03:54;11.38;;;5.38;;
24337;SDS011;12457;50.832;4.346;2023-04-01T03:06:19;14.10;;;5.47;;
24337;SDS011;12457;50.832;4.346;2023-04-01T03:08:45;22.67;;;6.47;;
24337;SDS011;12457;50.832;4.346;2023-04-01T03:11:13;16.20;;;6.60;;
24337;SDS011;12457;50.832;4.346;2023-04-01T03:13:40;12.93;;;6.00;;
24337;SDS011;12457;50.832;4.346;2023-04-01T03:16:05;21.73;;;7.07;;
24337;SDS011;12457;50.832;4.346;2023-04-01T03:18:31;14.68;;;7.10;;
24337;SDS011;12457;50.832;4.346;2023-04-01T03:21:11;15.23;;;7.45;;
24337;SDS011;12457;50.832;4.346;2023-04-01T03:23:41;17.08;;;8.00;;
24337;SDS011;12457;50.832;4.346;2023-04-01T03:26:07;18.17;;;7.78;;
24337;SDS011;12457;50.832;4.346;2023-04-01T03:28:33;17.23;;;8.05;;
24337;SDS011;12457;50.832;4.346;2023-04-01T03:30:59;21.35;;;8.00;;
24337;SDS011;12457;50.832;4.346;2023-04-01T03:33:26;16.80;;;8.15;;
24337;SDS011;12457;50.832;4.346;2023-04-01T03:35:51;20.13;;;8.68;;
24337;SDS011;12457;50.832;4.346;2023-04-01T03:38:17;16.23;;;8.43;;
24337;SDS011;12457;50.832;4.346;2023-04-01T03:40:43;15.68;;;8.10;;
24337;SDS011;12457;50.832;4.346;2023-04-01T03:43:10;21.98;;;8.48;;
24337;SDS011;12457;50.832;4.346;2023-04-01T03:45:36;24.42;;;9.07;;
24337;SDS011;12457;50.832;4.346;2023-04-01T03:48:09;24.90;;;9.65;;
24337;SDS011;12457;50.832;4.346;2023-04-01T03:50:36;26.30;;;9.30;;
24337;SDS011;12457;50.832;4.346;2023-04-01T03:53:01;21.83;;;9.43;;
24337;SDS011;12457;50.832;4.346;2023-04-01T03:55:27;18.98;;;9.48;;
24337;SDS011;12457;50.832;4.346;2023-04-01T03:57:53;21.17;;;8.80;;
24337;SDS011;12457;50.832;4.346;2023-04-01T04:00:19;17.90;;;8.93;;
24337;SDS011;12457;50.832;4.346;2023-04-01T04:02:44;24.05;;;9.77;;
24337;SDS011;12457;50.832;4.346;2023-04-01T04:05:10;19.88;;;9.30;;
24337;SDS011;12457;50.832;4.346;2023-04-01T04:07:36;20.20;;;9.18;;
24337;SDS011;12457;50.832;4.346;2023-04-01T04:10:03;20.67;;;8.57;;
24337;SDS011;12457;50.832;4.346;2023-04-01T04:12:29;18.27;;;8.50;;
24337;SDS011;12457;50.832;4.346;2023-04-01T04:14:54;17.92;;;7.35;;
24337;SDS011;12457;50.832;4.346;2023-04-01T04:17:20;19.15;;;8.40;;
24337;SDS011;12457;50.832;4.346;2023-04-01T04:19:46;20.25;;;7.93;;
24337;SDS011;12457;50.832;4.346;2023-04-01T04:22:12;21.17;;;8.35;;
24337;SDS011;12457;50.832;4.346;2023-04-01T04:24:37;22.45;;;8.32;;
24337;SDS011;12457;50.832;4.346;2023-04-01T04:27:03;17.73;;;7.22;;
24337;SDS011;12457;50.832;4.346;2023-04-01T04:29:32;21.20;;;7.20;;
24337;SDS011;12457;50.832;4.346;2023-04-01T04:31:58;15.75;;;8.07;;
24337;SDS011;12457;50.832;4.346;2023-04-01T04:34:24;14.00;;;6.70;;
24337;SDS011;12457;50.832;4.346;2023-04-01T04:36:49;10.50;;;7.22;;
24337;SDS011;12457;50.832;4.346;2023-04-01T04:39:15;14.13;;;6.95;;
24337;SDS011;12457;50.832;4.346;2023-04-01T04:41:41;17.75;;;7.35;;
24337;SDS011;12457;50.832;4.346;2023-04-01T04:44:07;15.18;;;7.68;;
24337;SDS011;12457;50.832;4.346;2023-04-01T04:46:33;14.65;;;6.45;;
24337;SDS011;12457;50.832;4.346;2023-04-01T04:49:01;12.98;;;6.22;;
24337;SDS011;12457;50.832;4.346;2023-04-01T04:51:26;11.77;;;6.22;;
24337;SDS011;12457;50.832;4.346;2023-04-01T04:53:52;12.25;;;5.70;;
24337;SDS011;12457;50.832;4.346;2023-04-01T04:56:20;8.85;;;5.72;;
24337;SDS011;12457;50.832;4.346;2023-04-01T04:58:47;9.15;;;6.18;;
24337;SDS011;12457;50.832;4.346;2023-04-01T05:01:14;11.77;;;6.10;;
24337;SDS011;12457;50.832;4.346;2023-04-01T05:03:42;13.73;;;6.22;;
24337;SDS011;12457;50.832;4.346;2023-04-01T05:06:08;12.55;;;6.07;;
24337;SDS011;12457;50.832;4.346;2023-04-01T05:08:35;9.73;;;5.45;;
24337;SDS011;12457;50.832;4.346;2023-04-01T05:11:03;16.02;;;5.90;;
24337;SDS011;12457;50.832;4.346;2023-04-01T05:13:35;11.15;;;5.70;;
24337;SDS011;12457;50.832;4.346;2023-04-01T05:16:01;14.25;;;6.18;;
24337;SDS011;12457;50.832;4.346;2023-04-01T05:18:27;8.90;;;5.85;;
24337;SDS011;12457;50.832;4.346;2023-04-01T05:20:53;12.65;;;6.47;;
24337;SDS011;12457;50.832;4.346;2023-04-01T05:23:21;11.90;;;6.03;;
24337;SDS011;12457;50.832;4.346;2023-04-01T05:25:48;11.85;;;6.10;;
24337;SDS011;12457;50.832;4.346;2023-04-01T05:28:14;11.48;;;6.68;;
24337;SDS011;12457;50.832;4.346;2023-04-01T05:30:41;13.88;;;6.97;;
24337;SDS011;12457;50.832;4.346;2023-04-01T05:33:08;16.45;;;7.45;;
24337;SDS011;12457;50.832;4.346;2023-04-01T05:35:35;17.75;;;7.80;;
24337;SDS011;12457;50.832;4.346;2023-04-01T05:38:01;16.00;;;8.30;;
24337;SDS011;12457;50.832;4.346;2023-04-01T05:40:27;16.65;;;7.78;;
24337;SDS011;12457;50.832;4.346;2023-04-01T05:42:53;18.75;;;7.88;;
24337;SDS011;12457;50.832;4.346;2023-04-01T05:45:19;22.65;;;8.48;;
24337;SDS011;12457;50.832;4.346;2023-04-01T05:47:45;15.05;;;8.40;;
24337;SDS011;12457;50.832;4.346;2023-04-01T05:50:11;22.17;;;9.98;;
24337;SDS011;12457;50.832;4.346;2023-04-01T05:52:37;19.70;;;9.43;;
24337;SDS011;12457;50.832;4.346;2023-04-01T05:55:03;21.23;;;10.55;;
24337;SDS011;12457;50.832;4.346;2023-04-01T05:57:30;18.48;;;9.93;;
24337;SDS011;12457;50.832;4.346;2023-04-01T05:59:55;20.92;;;10.45;;
24337;SDS011;12457;50.832;4.346;2023-04-01T06:02:21;21.00;;;10.27;;
24337;SDS011;12457;50.832;4.346;2023-04-01T06:04:47;17.05;;;10.80;;
24337;SDS011;12457;50.832;4.346;2023-04-01T06:07:13;20.83;;;11.02;;
24337;SDS011;12457;50.832;4.346;2023-04-01T06:09:40;23.05;;;11.45;;
24337;SDS011;12457;50.832;4.346;2023-04-01T06:20:46;18.98;;;10.38;;
24337;SDS011;12457;50.832;4.346;2023-04-01T06:23:50;21.25;;;10.02;;
24337;SDS011;12457;50.832;4.346;2023-04-01T06:29:19;20.98;;;9.80;;
24337;SDS011;12457;50.832;4.346;2023-04-01T06:40:27;22.38;;;11.48;;
24337;SDS011;12457;50.832;4.346;2023-04-01T06:54:24;19.10;;;10.52;;
24337;SDS011;12457;50.832;4.346;2023-04-01T07:00:01;19.08;;;9.30;;
24337;SDS011;12457;50.832;4.346;2023-04-01T07:02:32;13.77;;;9.20;;
24337;SDS011;12457;50.832;4.346;2023-04-01T07:05:08;22.27;;;8.55;;
24337;SDS011;12457;50.832;4.346;2023-04-01T07:07:43;20.65;;;8.75;;
24337;SDS011;12457;50.832;4.346;2023-04-01T07:10:34;12.07;;;7.10;;
24337;SDS011;12457;50.832;4.346;2023-04-01T07:13:03;17.95;;;7.85;;
24337;SDS011;12457;50.832;4.346;2023-04-01T07:15:39;15.38;;;7.68;;
24337;SDS011;12457;50.832;4.346;2023-04-01T07:18:24;9.60;;;6.75;;
24337;SDS011;12457;50.832;4.346;2023-04-01T07:20:55;14.00;;;5.90;;
24337;SDS011;12457;50.832;4.346;2023-04-01T07:23:23;8.90;;;6.00;;
24337;SDS011;12457;50.832;4.346;2023-04-01T07:26:01;12.85;;;5.78;;
24337;SDS011;12457;50.832;4.346;2023-04-01T07:28:39;10.90;;;6.53;;
24337;SDS011;12457;50.832;4.346;2023-04-01T07:37:34;5.90;;;4.40;;
24337;SDS011;12457;50.832;4.346;2023-04-01T07:40:26;7.47;;;5.38;;
24337;SDS011;12457;50.832;4.346;2023-04-01T07:43:06;10.95;;;6.28;;
24337;SDS011;12457;50.832;4.346;2023-04-01T07:48:48;5.55;;;4.25;;
24337;SDS011;12457;50.832;4.346;2023-04-01T07:51:30;7.07;;;4.15;;
24337;SDS011;12457;50.832;4.346;2023-04-01T07:54:12;8.13;;;3.40;;
24337;SDS011;12457;50.832;4.346;2023-04-01T07:57:12;5.47;;;3.65;;
24337;SDS011;12457;50.832;4.346;2023-04-01T07:59:51;3.88;;;2.90;;
24337;SDS011;12457;50.832;4.346;2023-04-01T08:02:37;5.20;;;3.28;;
24337;SDS011;12457;50.832;4.346;2023-04-01T08:06:01;4.13;;;2.65;;
24337;SDS011;12457;50.832;4.346;2023-04-01T08:20:18;4.13;;;2.40;;
24337;SDS011;12457;50.832;4.346;2023-04-01T08:22:55;2.30;;;2.10;;
24337;SDS011;12457;50.832;4.346;2023-04-01T08:25:40;5.03;;;3.53;;
24337;SDS011;12457;50.832;4.346;2023-04-01T08:34:23;3.90;;;2.90;;
24337;SDS011;12457;50.832;4.346;2023-04-01T08:36:58;5.45;;;3.10;;
24337;SDS011;12457;50.832;4.346;2023-04-01T08:53:06;3.75;;;3.30;;
24337;SDS011;12457;50.832;4.346;2023-04-01T09:04:50;4.80;;;2.42;;
24337;SDS011;12457;50.832;4.346;2023-04-01T09:07:40;4.10;;;2.80;;
24337;SDS011;12457;50.832;4.346;2023-04-01T09:13:20;8.07;;;3.70;;
24337;SDS011;12457;50.832;4.346;2023-04-01T09:16:16;7.35;;;2.83;;
24337;SDS011;12457;50.832;4.346;2023-04-01T09:22:19;5.00;;;2.83;;
24337;SDS011;12457;50.832;4.346;2023-04-01T09:27:44;5.07;;;2.83;;
24337;SDS011;12457;50.832;4.346;2023-04-01T09:49:48;4.82;;;2.95;;
24337;SDS011;12457;50.832;4.346;2023-04-01T10:02:23;4.20;;;2.38;;
24337;SDS011;12457;50.832;4.346;2023-04-01T10:13:57;3.03;;;2.50;;
24337;SDS011;12457;50.832;4.346;2023-04-01T10:16:57;4.93;;;2.80;;
24337;SDS011;12457;50.832;4.346;2023-04-01T10:30:35;2.65;;;2.45;;
24337;SDS011;12457;50.832;4.346;2023-04-01T10:36:30;3.83;;;2.28;;
24337;SDS011;12457;50.832;4.346;2023-04-01T10:56:38;6.90;;;2.30;;
24337;SDS011;12457;50.832;4.346;2023-04-01T11:02:24;4.03;;;2.92;;
24337;SDS011;12457;50.832;4.346;2023-04-01T11:13:55;3.63;;;2.67;;
24337;SDS011;12457;50.832;4.346;2023-04-01T11:42:09;5.38;;;3.25;;
24337;SDS011;12457;50.832;4.346;2023-04-01T11:53:35;8.10;;;3.27;;
24337;SDS011;12457;50.832;4.346;2023-04-01T12:07:44;6.93;;;3.08;;
24337;SDS011;12457;50.832;4.346;2023-04-01T12:10:47;6.22;;;3.10;;
24337;SDS011;12457;50.832;4.346;2023-04-01T12:13:46;9.15;;;5.18;;
24337;SDS011;12457;50.832;4.346;2023-04-01T12:24:59;9.13;;;3.78;;
24337;SDS011;12457;50.832;4.346;2023-04-01T12:30:53;5.82;;;3.90;;
24337;SDS011;12457;50.832;4.346;2023-04-01T12:50:23;5.07;;;3.38;;
24337;SDS011;12457;50.832;4.346;2023-04-01T12:55:37;12.50;;;4.72;;
24337;SDS011;12457;50.832;4.346;2023-04-01T13:01:23;7.75;;;4.30;;
24337;SDS011;12457;50.832;4.346;2023-04-01T13:15:43;6.28;;;3.00;;
24337;SDS011;12457;50.832;4.346;2023-04-01T13:21:15;4.35;;;3.83;;
24337;SDS011;12457;50.832;4.346;2023-04-01T13:27:39;9.07;;;3.83;;
24337;SDS011;12457;50.832;4.346;2023-04-01T13:33:04;4.88;;;3.15;;
24337;SDS011;12457;50.832;4.346;2023-04-01T13:35:43;4.65;;;2.70;;
24337;SDS011;12457;50.832;4.346;2023-04-01T13:41:15;5.68;;;2.55;;
24337;SDS011;12457;50.832;4.346;2023-04-01T13:43:57;6.45;;;3.22;;
24337;SDS011;12457;50.832;4.346;2023-04-01T13:54:57;3.70;;;1.90;;
24337;SDS011;12457;50.832;4.346;2023-04-01T14:00:30;4.10;;;2.63;;
24337;SDS011;12457;50.832;4.346;2023-04-01T14:08:13;2.65;;;2.28;;
24337;SDS011;12457;50.832;4.346;2023-04-01T14:10:44;7.20;;;2.58;;
24337;SDS011;12457;50.832;4.346;2023-04-01T14:13:45;6.10;;;2.30;;
24337;SDS011;12457;50.832;4.346;2023-04-01T14:16:32;6.40;;;3.17;;
24337;SDS011;12457;50.832;4.346;2023-04-01T14:19:42;4.70;;;2.72;;
24337;SDS011;12457;50.832;4.346;2023-04-01T14:30:58;2.50;;;1.88;;
24337;SDS011;12457;50.832;4.346;2023-04-01T14:33:46;4.13;;;2.58;;
24337;SDS011;12457;50.832;4.346;2023-04-01T14:36:26;3.67;;;2.30;;
24337;SDS011;12457;50.832;4.346;2023-04-01T14:44:36;3.08;;;1.90;;
24337;SDS011;12457;50.832;4.346;2023-04-01T14:53:44;3.67;;;2.00;;
24337;SDS011;12457;50.832;4.346;2023-04-01T14:56:44;2.47;;;1.63;;
24337;SDS011;12457;50.832;4.346;2023-04-01T14:59:34;2.88;;;1.95;;
24337;SDS011;12457;50.832;4.346;2023-04-01T15:02:23;2.17;;;1.90;;
24337;SDS011;12457;50.832;4.346;2023-04-01T15:16:01;3.33;;;2.50;;
24337;SDS011;12457;50.832;4.346;2023-04-01T15:24:34;4.82;;;2.40;;
24337;SDS011;12457;50.832;4.346;2023-04-01T15:33:20;3.70;;;2.50;;
24337;SDS011;12457;50.832;4.346;2023-04-01T15:40:51;2.67;;;1.70;;
24337;SDS011;12457;50.832;4.346;2023-04-01T15:43:49;4.20;;;2.10;;
24337;SDS011;12457;50.832;4.346;2023-04-01T16:04:59;5.25;;;2.10;;
24337;SDS011;12457;50.832;4.346;2023-04-01T16:13:22;2.80;;;1.65;;
24337;SDS011;12457;50.832;4.346;2023-04-01T16:19:03;4.28;;;2.25;;
24337;SDS011;12457;50.832;4.346;2023-04-01T16:24:24;2.80;;;2.30;;
24337;SDS011;12457;50.832;4.346;2023-04-01T16:30:36;4.00;;;2.55;;
24337;SDS011;12457;50.832;4.346;2023-04-01T16:33:20;9.48;;;2.83;;
24337;SDS011;12457;50.832;4.346;2023-04-01T16:36:09;3.58;;;2.30;;
24337;SDS011;12457;50.832;4.346;2023-04-01T16:38:37;5.00;;;3.00;;
24337;SDS011;12457;50.832;4.346;2023-04-01T16:44:19;4.18;;;3.35;;
24337;SDS011;12457;50.832;4.346;2023-04-01T16:46:59;5.60;;;3.20;;
24337;SDS011;12457;50.832;4.346;2023-04-01T17:00:38;4.53;;;3.28;;
24337;SDS011;12457;50.832;4.346;2023-04-01T17:03:13;4.68;;;3.15;;
24337;SDS011;12457;50.832;4.346;2023-04-01T17:11:44;7.70;;;3.53;;
24337;SDS011;12457;50.832;4.346;2023-04-01T17:14:22;4.35;;;2.58;;
24337;SDS011;12457;50.832;4.346;2023-04-01T17:20:05;7.20;;;2.75;;
24337;SDS011;12457;50.832;4.346;2023-04-01T17:23:02;4.50;;;3.05;;
24337;SDS011;12457;50.832;4.346;2023-04-01T17:25:48;5.72;;;3.10;;
24337;SDS011;12457;50.832;4.346;2023-04-01T17:46:03;6.10;;;3.45;;
24337;SDS011;12457;50.832;4.346;2023-04-01T17:51:46;5.07;;;3.30;;
24337;SDS011;12457;50.832;4.346;2023-04-01T17:54:28;6.45;;;3.20;;
24337;SDS011;12457;50.832;4.346;2023-04-01T18:02:49;7.85;;;4.47;;
24337;SDS011;12457;50.832;4.346;2023-04-01T18:22:34;5.60;;;4.43;;
24337;SDS011;12457;50.832;4.346;2023-04-01T18:25:21;17.08;;;7.72;;
24337;SDS011;12457;50.832;4.346;2023-04-01T18:27:58;20.42;;;10.00;;
24337;SDS011;12457;50.832;4.346;2023-04-01T18:33:46;10.48;;;7.28;;
24337;SDS011;12457;50.832;4.346;2023-04-01T18:36:35;10.85;;;7.38;;
24337;SDS011;12457;50.832;4.346;2023-04-01T18:39:34;7.20;;;6.47;;
24337;SDS011;12457;50.832;4.346;2023-04-01T18:42:08;11.32;;;6.70;;
24337;SDS011;12457;50.832;4.346;2023-04-01T18:50:54;9.82;;;8.82;;
24337;SDS011;12457;50.832;4.346;2023-04-01T18:56:44;16.77;;;10.88;;
24337;SDS011;12457;50.832;4.346;2023-04-01T19:01:56;17.50;;;11.77;;
24337;SDS011;12457;50.832;4.346;2023-04-01T19:07:33;14.98;;;12.05;;
24337;SDS011;12457;50.832;4.346;2023-04-01T19:10:13;19.63;;;13.55;;
24337;SDS011;12457;50.832;4.346;2023-04-01T19:12:46;16.35;;;13.32;;
24337;SDS011;12457;50.832;4.346;2023-04-01T19:18:02;25.40;;;16.25;;
24337;SDS011;12457;50.832;4.346;2023-04-01T19:20:42;24.67;;;15.18;;
24337;SDS011;12457;50.832;4.346;2023-04-01T19:29:33;26.52;;;16.80;;
24337;SDS011;12457;50.832;4.346;2023-04-01T19:32:37;40.50;;;24.80;;
24337;SDS011;12457;50.832;4.346;2023-04-01T19:35:23;39.72;;;22.38;;
24337;SDS011;12457;50.832;4.346;2023-04-01T19:49:00;30.92;;;20.85;;
24337;SDS011;12457;50.832;4.346;2023-04-01T19:51:50;35.22;;;19.27;;
24337;SDS011;12457;50.832;4.346;2023-04-01T20:08:39;47.83;;;20.98;;
24337;SDS011;12457;50.832;4.346;2023-04-01T20:11:30;32.17;;;19.13;;
24337;SDS011;12457;50.832;4.346;2023-04-01T20:14:40;32.53;;;18.98;;
24337;SDS011;12457;50.832;4.346;2023-04-01T20:17:18;37.47;;;18.20;;
24337;SDS011;12457;50.832;4.346;2023-04-01T20:20:15;32.65;;;17.77;;
24337;SDS011;12457;50.832;4.346;2023-04-01T20:27:45;37.45;;;19.50;;
24337;SDS011;12457;50.832;4.346;2023-04-01T20:30:27;36.08;;;18.70;;
24337;SDS011;12457;50.832;4.346;2023-04-01T20:33:20;32.05;;;18.35;;
24337;SDS011;12457;50.832;4.346;2023-04-01T20:36:16;32.28;;;18.15;;
24337;SDS011;12457;50.832;4.346;2023-04-01T20:39:21;33.28;;;19.25;;
24337;SDS011;12457;50.832;4.346;2023-04-01T20:41:55;30.42;;;18.88;;
24337;SDS011;12457;50.832;4.346;2023-04-01T20:53:07;31.30;;;17.13;;
24337;SDS011;12457;50.832;4.346;2023-04-01T21:23:42;40.30;;;24.80;;
24337;SDS011;12457;50.832;4.346;2023-04-01T21:26:47;49.47;;;24.63;;
24337;SDS011;12457;50.832;4.346;2023-04-01T21:29:56;42.15;;;22.65;;
24337;SDS011;12457;50.832;4.346;2023-04-01T21:33:16;46.97;;;24.67;;
24337;SDS011;12457;50.832;4.346;2023-04-01T21:36:16;46.10;;;23.88;;
24337;SDS011;12457;50.832;4.346;2023-04-01T21:44:41;53.97;;;24.20;;
24337;SDS011;12457;50.832;4.346;2023-04-01T21:58:11;42.08;;;20.90;;
24337;SDS011;12457;50.832;4.346;2023-04-01T22:04:01;33.13;;;19.13;;
24337;SDS011;12457;50.832;4.346;2023-04-01T22:09:06;34.53;;;19.10;;
24337;SDS011;12457;50.832;4.346;2023-04-01T22:11:54;32.25;;;17.83;;
24337;SDS011;12457;50.832;4.346;2023-04-01T22:17:12;34.45;;;19.83;;
24337;SDS011;12457;50.832;4.346;2023-04-01T22:22:45;34.20;;;19.52;;
24337;SDS011;12457;50.832;4.346;2023-04-01T22:27:54;33.58;;;20.30;;
24337;SDS011;12457;50.832;4.346;2023-04-01T22:30:27;33.95;;;21.63;;
24337;SDS011;12457;50.832;4.346;2023-04-01T22:33:19;35.38;;;20.92;;
24337;SDS011;12457;50.832;4.346;2023-04-01T22:44:53;34.75;;;23.10;;
24337;SDS011;12457;50.832;4.346;2023-04-01T22:47:24;37.92;;;24.08;;
24337;SDS011;12457;50.832;4.346;2023-04-01T22:50:05;33.55;;;24.55;;
24337;SDS011;12457;50.832;4.346;2023-04-01T22:52:38;38.42;;;25.80;;
24337;SDS011;12457;50.832;4.346;2023-04-01T22:55:13;39.85;;;25.35;;
24337;SDS011;12457;50.832;4.346;2023-04-01T22:57:50;37.10;;;22.20;;
24337;SDS011;12457;50.832;4.346;2023-04-01T23:05:53;33.55;;;23.55;;
24337;SDS011;12457;50.832;4.346;2023-04-01T23:16:35;27.45;;;20.05;;
24337;SDS011;12457;50.832;4.346;2023-04-01T23:21:49;25.88;;;19.30;;
24337;SDS011;12457;50.832;4.346;2023-04-01T23:24:28;31.38;;;19.38;;
24337;SDS011;12457;50.832;4.346;2023-04-01T23:30:02;31.88;;;21.33;;
24337;SDS011;12457;50.832;4.346;2023-04-01T23:32:28;33.13;;;21.83;;
24337;SDS011;12457;50.832;4.346;2023-04-01T23:34:55;27.73;;;19.73;;
24337;SDS011;12457;50.832;4.346;2023-04-01T23:37:23;28.95;;;19.92;;
24337;SDS011;12457;50.832;4.346;2023-04-01T23:39:50;35.13;;;22.70;;
24337;SDS011;12457;50.832;4.346;2023-04-01T23:42:25;33.75;;;20.20;;
24337;SDS011;12457;50.832;4.346;2023-04-01T23:44:58;33.33;;;21.65;;
24337;SDS011;12457;50.832;4.346;2023-04-01T23:50:04;37.88;;;24.20;;
24337;SDS011;12457;50.832;4.346;2023-04-01T23:52:39;40.00;;;25.05;;
24337;SDS011;12457;50.832;4.346;2023-04-01T23:55:18;40.60;;;25.83;;
